Time;durP1;ratioP1;P1;durP2;ratioP2;P2;SDS_P1;SDS_P2;PMS_P1;PMS_P2;Temp;Humidity;BMP_temperature;BMP_pressure;BME280_temperature;BME280_humidity;BME280_pressure;Samples;Min_cycle;Max_cycle;Signal;HPM_P1;HPM_P2
2023/01/31 00:00:17;;;;;;;13.73;7.97;;;5.80;67.00;;;0.75;100.00;96515.69;4951461;28;20106;-50
2023/01/31 00:02:43;;;;;;;14.02;8.38;;;5.80;67.00;;;0.75;100.00;96515.69;4951172;28;20027;-52
2023/01/31 00:05:15;;;;;;;12.25;7.65;;;5.80;67.10;;;0.71;100.00;96517.06;4950476;28;20021;-51
2023/01/31 00:07:40;;;;;;;13.52;7.80;;;5.80;67.10;;;0.72;100.00;96516.88;4940747;28;20031;-55
2023/01/31 00:10:10;;;;;;;13.48;8.05;;;5.80;67.10;;;0.76;100.00;96517.34;4937282;28;20032;-51
2023/01/31 00:12:45;;;;;;;13.90;8.75;;;5.80;67.10;;;0.73;100.00;96512.47;4937048;28;20456;-50
2023/01/31 00:15:20;;;;;;;11.93;7.80;;;5.80;67.10;;;0.74;100.00;96514.88;4945202;28;20043;-50
2023/01/31 00:17:51;;;;;;;16.02;8.30;;;5.80;67.10;;;0.75;100.00;96515.69;4939862;28;20604;-50
2023/01/31 00:20:20;;;;;;;13.38;7.88;;;5.80;67.20;;;0.77;100.00;96505.84;4943403;28;20031;-50
2023/01/31 00:22:46;;;;;;;12.90;8.30;;;5.80;67.20;;;0.77;100.00;96493.53;4950803;28;20034;-53
2023/01/31 00:25:15;;;;;;;15.02;7.97;;;5.80;67.20;;;0.79;100.00;96501.25;4948728;28;20542;-51
2023/01/31 00:27:47;;;;;;;14.90;8.88;;;5.80;67.10;;;0.82;100.00;96509.56;4950088;28;20430;-51
2023/01/31 00:30:13;;;;;;;11.87;7.70;;;5.90;67.20;;;0.80;100.00;96502.88;4947268;28;20516;-50
2023/01/31 00:32:42;;;;;;;13.60;8.18;;;5.90;67.10;;;0.72;100.00;96510.81;4915998;28;20034;-50
2023/01/31 00:35:08;;;;;;;14.50;8.60;;;5.90;67.00;;;0.72;100.00;96500.31;4941327;28;20025;-53
2023/01/31 00:37:34;;;;;;;15.65;8.93;;;5.90;66.90;;;0.66;100.00;96502.69;4933997;28;20037;-51
2023/01/31 00:40:00;;;;;;;13.90;7.85;;;5.90;67.00;;;0.72;100.00;96500.31;4941074;28;20035;-52
2023/01/31 00:42:26;;;;;;;15.88;8.50;;;5.90;67.00;;;0.66;100.00;96494.81;4948695;28;20162;-52
2023/01/31 00:44:57;;;;;;;14.00;8.15;;;5.90;67.10;;;0.67;100.00;96493.00;4949784;28;20026;-53
2023/01/31 00:47:32;;;;;;;10.90;7.25;;;5.90;67.20;;;0.68;100.00;96490.19;4938569;28;20034;-50
2023/01/31 00:50:01;;;;;;;12.70;7.88;;;5.80;67.20;;;0.67;100.00;96491.19;4950886;28;20158;-50
2023/01/31 00:52:31;;;;;;;15.38;8.38;;;5.80;67.20;;;0.73;100.00;96494.09;4945040;28;20047;-53
2023/01/31 00:54:57;;;;;;;11.68;7.60;;;5.80;67.30;;;0.76;100.00;96489.31;4942474;28;20054;-50
2023/01/31 00:57:23;;;;;;;13.43;7.90;;;5.80;67.30;;;0.65;100.00;96480.06;4937828;28;20065;-51
2023/01/31 00:59:48;;;;;;;11.82;7.80;;;5.80;67.40;;;0.66;100.00;96470.41;4937529;28;20033;-53
2023/01/31 01:02:17;;;;;;;15.02;8.18;;;5.80;67.40;;;0.66;100.00;96468.59;4949530;28;20084;-53
2023/01/31 01:04:46;;;;;;;10.57;7.07;;;5.80;67.50;;;0.72;100.00;96468.84;4951005;28;20029;-50
2023/01/31 01:07:17;;;;;;;13.88;8.13;;;5.80;67.50;;;0.65;100.00;96461.72;4942564;28;20038;-50
2023/01/31 01:09:53;;;;;;;12.25;8.18;;;5.70;67.50;;;0.69;100.00;96463.00;4931519;29;20102;-50
2023/01/31 01:12:22;;;;;;;11.85;8.02;;;5.80;67.50;;;0.70;100.00;96463.81;4937312;29;20085;-51
2023/01/31 01:14:53;;;;;;;13.30;7.93;;;5.70;67.50;;;0.68;100.00;96469.22;4935977;29;20401;-53
2023/01/31 01:17:25;;;;;;;12.73;7.90;;;5.70;67.50;;;0.73;100.00;96465.25;4950208;29;20525;-51
2023/01/31 01:19:54;;;;;;;12.98;7.85;;;5.70;67.60;;;0.74;100.00;96465.06;4961284;28;20030;-54
2023/01/31 01:22:23;;;;;;;14.02;7.75;;;5.70;67.60;;;0.71;100.00;96464.59;4946768;29;20039;-55
2023/01/31 01:24:51;;;;;;;13.77;8.88;;;5.70;67.60;;;0.72;100.00;96472.28;4948512;29;20386;-52
2023/01/31 01:27:30;;;;;;;14.25;8.52;;;5.80;67.70;;;0.74;100.00;96480.78;4951319;28;20362;-52
2023/01/31 01:29:57;;;;;;;13.90;8.48;;;5.80;67.70;;;0.77;100.00;96477.81;4949163;29;20026;-53
2023/01/31 01:32:23;;;;;;;12.70;8.20;;;5.80;67.70;;;0.79;100.00;96477.66;4951825;28;20623;-53
2023/01/31 01:34:49;;;;;;;15.30;8.13;;;5.80;67.80;;;0.79;100.00;96475.03;4932124;29;20030;-52
2023/01/31 01:37:21;;;;;;;14.27;8.65;;;5.80;67.70;;;0.79;100.00;96480.28;4944090;29;20073;-56
2023/01/31 01:39:56;;;;;;;14.20;8.03;;;5.80;67.70;;;0.80;100.00;96485.31;4939943;29;20037;-50
2023/01/31 01:42:34;;;;;;;12.05;8.00;;;5.80;67.60;;;0.83;100.00;96479.72;4942791;28;20045;-52
2023/01/31 01:45:15;;;;;;;14.27;9.30;;;5.80;67.70;;;0.84;100.00;96481.31;4939953;29;20080;-52
2023/01/31 01:47:59;;;;;;;14.85;9.23;;;5.90;67.70;;;0.84;100.00;96483.94;4936733;28;20034;-51
2023/01/31 01:50:56;;;;;;;12.80;8.43;;;5.90;67.70;;;0.87;100.00;96480.97;4952020;28;20118;-51
2023/01/31 01:53:27;;;;;;;16.25;8.98;;;5.90;67.70;;;0.88;100.00;96477.38;4934694;28;20125;-53
2023/01/31 01:56:06;;;;;;;14.52;8.93;;;5.90;67.70;;;0.86;100.00;96471.47;4953331;28;20027;-52
2023/01/31 01:58:45;;;;;;;12.98;8.30;;;6.00;67.80;;;0.86;100.00;96474.09;4950356;28;20026;-50
2023/01/31 02:01:17;;;;;;;14.73;8.75;;;6.00;67.60;;;0.87;100.00;96480.16;4944871;28;20034;-51
2023/01/31 02:03:47;;;;;;;16.63;9.38;;;5.90;67.50;;;0.86;100.00;96481.97;4948959;28;20026;-52
2023/01/31 02:06:17;;;;;;;13.70;8.60;;;6.00;67.60;;;0.85;100.00;96475.09;4949473;28;20048;-50
2023/01/31 02:08:48;;;;;;;15.15;8.45;;;6.00;67.50;;;0.85;100.00;96480.34;4904733;29;20030;-50
2023/01/31 02:11:32;;;;;;;16.85;9.18;;;6.00;67.50;;;0.84;100.00;96485.75;4928658;28;20033;-51
2023/01/31 02:14:19;;;;;;;15.27;8.73;;;6.00;67.50;;;0.80;100.00;96479.25;4977444;22;20104;-52
2023/01/31 02:16:51;;;;;;;14.15;9.07;;;6.00;67.50;;;0.79;100.00;96480.28;4991447;28;20084;-59
2023/01/31 02:20:18;;;;;;;16.52;8.90;;;6.00;67.40;;;0.80;100.00;96482.69;5002918;28;20067;-60
2023/01/31 02:23:33;;;;;;;12.90;8.18;;;6.00;67.30;;;0.78;100.00;96476.81;4975732;28;20091;-60
2023/01/31 02:26:59;;;;;;;14.40;8.75;;;6.00;67.50;;;0.79;100.00;96483.69;4975282;28;20060;-58
2023/01/31 02:30:33;;;;;;;12.45;8.48;;;5.90;67.40;;;0.74;100.00;96486.03;4989224;28;20033;-60
2023/01/31 02:33:42;;;;;;;12.43;7.97;;;5.90;67.40;;;0.69;100.00;96494.47;4990492;28;20025;-60
2023/01/31 02:37:02;;;;;;;13.57;8.07;;;5.80;67.40;;;0.63;100.00;96492.56;4975920;28;20527;-56
2023/01/31 02:39:54;;;;;;;12.80;7.53;;;5.80;67.40;;;0.64;100.00;96493.38;4985428;28;20018;-58
2023/01/31 02:42:46;;;;;;;14.00;8.55;;;5.80;67.40;;;0.64;100.00;96488.13;4966323;28;20116;-59
2023/01/31 02:45:58;;;;;;;12.50;7.40;;;5.80;67.40;;;0.62;100.00;96487.47;4991020;28;20022;-59
2023/01/31 02:49:03;;;;;;;13.65;8.10;;;5.80;67.50;;;0.58;100.00;96492.28;4986200;28;20100;-55
2023/01/31 02:52:14;;;;;;;12.40;8.18;;;5.70;67.40;;;0.55;100.00;96491.81;4990820;28;20380;-53
2023/01/31 02:57:22;;;;;;;13.88;8.15;;;5.70;67.50;;;0.47;100.00;96490.09;4981807;28;20073;-57
2023/01/31 02:59:52;;;;;;;16.45;8.38;;;5.70;67.50;;;0.44;100.00;96486.03;4971102;28;20061;-58
2023/01/31 03:02:19;;;;;;;14.68;8.02;;;5.60;67.40;;;0.46;100.00;96484.03;4963628;28;20036;-56
2023/01/31 03:04:45;;;;;;;13.35;8.10;;;5.60;67.50;;;0.49;100.00;96479.44;4991578;28;20033;-52
2023/01/31 03:07:28;;;;;;;13.13;7.38;;;5.60;67.50;;;0.42;100.00;96468.84;4991949;28;20091;-56
2023/01/31 03:10:30;;;;;;;13.55;7.97;;;5.60;67.50;;;0.38;100.00;96472.81;4977157;28;20038;-56
2023/01/31 03:13:21;;;;;;;13.88;8.27;;;5.50;67.30;;;0.25;100.00;96472.59;4959791;28;20030;-60
2023/01/31 03:20:16;;;;;;;14.40;8.75;;;5.40;67.40;;;0.10;100.00;96483.88;4995714;28;20096;-59
2023/01/31 03:23:09;;;;;;;12.82;8.35;;;5.30;67.40;;;0.03;100.00;96488.19;4948127;28;20044;-55
2023/01/31 03:25:39;;;;;;;14.38;8.45;;;5.20;67.50;;;0.02;100.00;96483.13;4988088;28;20018;-58
2023/01/31 03:28:26;;;;;;;18.17;8.95;;;5.10;67.50;;;-0.06;100.00;96489.25;4992180;28;20034;-58
2023/01/31 03:31:52;;;;;;;14.30;8.48;;;5.10;67.50;;;-0.14;100.00;96497.97;4990895;28;20022;-53
2023/01/31 03:34:19;;;;;;;14.90;8.27;;;5.00;67.50;;;-0.22;100.00;96500.63;4942514;28;20035;-59
2023/01/31 03:37:44;;;;;;;17.67;9.48;;;4.90;67.50;;;-0.30;100.00;96498.09;4948902;28;20030;-60
2023/01/31 03:40:29;;;;;;;16.77;8.52;;;4.90;67.60;;;-0.37;100.00;96511.06;4996840;28;20034;-60
2023/01/31 03:43:36;;;;;;;16.80;9.02;;;4.80;67.60;;;-0.42;100.00;96520.41;4988403;28;20069;-58
2023/01/31 03:46:36;;;;;;;18.48;10.02;;;4.90;67.70;;;-0.45;100.00;96518.16;4990710;28;20117;-54
2023/01/31 03:49:10;;;;;;;17.17;9.63;;;4.80;67.70;;;-0.44;100.00;96517.97;4972887;28;20056;-57
2023/01/31 03:51:49;;;;;;;17.02;9.68;;;4.80;67.80;;;-0.45;100.00;96513.72;4989753;28;20358;-56
2023/01/31 03:54:31;;;;;;;18.42;9.40;;;4.80;67.80;;;-0.47;100.00;96519.16;4975803;28;20029;-57
2023/01/31 03:57:30;;;;;;;18.38;9.27;;;4.70;67.80;;;-0.49;100.00;96520.31;4990456;28;20484;-54
2023/01/31 04:00:04;;;;;;;17.05;8.93;;;4.70;67.70;;;-0.56;100.00;96514.94;4990199;28;20025;-57
2023/01/31 04:02:37;;;;;;;18.38;9.25;;;4.60;67.70;;;-0.62;100.00;96512.19;4983170;28;20399;-54
2023/01/31 04:05:21;;;;;;;16.77;8.43;;;4.60;67.70;;;-0.71;100.00;96509.63;4973121;28;20030;-55
2023/01/31 04:07:48;;;;;;;16.73;9.05;;;4.50;67.70;;;-0.75;100.00;96512.75;4981647;28;20040;-57
2023/01/31 04:10:19;;;;;;;15.38;8.75;;;4.40;67.60;;;-0.84;100.00;96506.75;4988494;28;20546;-56
2023/01/31 04:12:48;;;;;;;22.60;9.48;;;4.30;67.60;;;-0.91;100.00;96512.81;4987297;28;20029;-57
2023/01/31 04:15:18;;;;;;;17.40;8.60;;;4.30;67.60;;;-0.99;100.00;96511.84;4968916;28;20080;-55
2023/01/31 04:17:44;;;;;;;17.50;8.82;;;4.20;67.70;;;-1.05;100.00;96515.16;4973905;28;20372;-57
2023/01/31 04:20:11;;;;;;;16.50;9.07;;;4.10;67.60;;;-1.10;100.00;96514.03;4970726;28;20377;-57
2023/01/31 04:22:43;;;;;;;17.73;9.82;;;4.00;67.60;;;-1.18;100.00;96517.50;4969206;28;20049;-51
2023/01/31 04:25:22;;;;;;;21.57;9.87;;;4.00;67.80;;;-1.20;100.00;96519.44;4968197;28;20020;-57
2023/01/31 04:27:47;;;;;;;19.45;9.80;;;3.90;67.90;;;-1.23;100.00;96531.06;4985530;28;20336;-54
2023/01/31 04:30:14;;;;;;;17.48;9.35;;;3.90;67.90;;;-1.22;100.00;96529.28;4969241;28;20045;-52
2023/01/31 04:32:39;;;;;;;19.45;10.38;;;3.80;68.00;;;-1.23;100.00;96527.63;4981014;28;20038;-57
2023/01/31 04:35:06;;;;;;;18.80;9.30;;;3.80;68.10;;;-1.25;100.00;96527.81;4985286;28;20033;-53
2023/01/31 04:37:38;;;;;;;17.23;8.98;;;3.80;68.30;;;-1.28;100.00;96530.75;4970675;28;20057;-52
2023/01/31 04:40:08;;;;;;;14.50;8.33;;;3.80;68.30;;;-1.33;100.00;96532.22;4970821;28;20033;-52
2023/01/31 04:42:34;;;;;;;18.98;9.43;;;3.70;68.30;;;-1.43;100.00;96528.00;4960579;28;20898;-52
2023/01/31 04:45:00;;;;;;;21.42;10.05;;;3.70;68.30;;;-1.53;100.00;96521.34;4961836;28;20109;-53
2023/01/31 04:47:25;;;;;;;20.58;9.95;;;3.60;68.20;;;-1.57;100.00;96520.81;4952973;28;20054;-54
2023/01/31 04:49:51;;;;;;;22.65;9.88;;;3.60;68.30;;;-1.59;100.00;96525.41;4984099;28;20499;-54
2023/01/31 04:52:20;;;;;;;25.98;11.40;;;3.50;68.30;;;-1.60;100.00;96522.94;4964563;28;20029;-56
2023/01/31 04:54:51;;;;;;;22.00;11.18;;;3.50;68.50;;;-1.55;100.00;96531.13;4958991;28;20469;-56
2023/01/31 04:57:20;;;;;;;25.85;11.32;;;3.50;68.60;;;-1.52;100.00;96528.19;4970178;28;20105;-55
2023/01/31 04:59:51;;;;;;;28.08;11.25;;;3.50;68.80;;;-1.57;100.00;96528.66;4947086;28;20798;-57
2023/01/31 05:02:32;;;;;;;26.90;11.70;;;3.50;68.90;;;-1.55;100.00;96531.13;4969063;28;20026;-58
2023/01/31 05:05:17;;;;;;;22.90;11.13;;;3.50;68.90;;;-1.52;100.00;96526.38;4965319;28;20076;-57
2023/01/31 05:07:55;;;;;;;26.45;10.95;;;3.50;69.00;;;-1.49;100.00;96533.06;4968165;28;20034;-56
2023/01/31 05:10:47;;;;;;;22.48;10.65;;;3.50;69.10;;;-1.46;100.00;96535.34;4969572;28;20638;-55
2023/01/31 05:13:13;;;;;;;27.00;10.88;;;3.60;69.20;;;-1.44;100.00;96536.03;4965900;28;20507;-55
2023/01/31 05:15:39;;;;;;;23.38;10.40;;;3.60;69.10;;;-1.42;100.00;96544.50;4968829;28;20513;-57
2023/01/31 05:18:08;;;;;;;24.13;11.50;;;3.70;69.20;;;-1.40;100.00;96545.16;4967665;28;20022;-54
2023/01/31 05:20:39;;;;;;;25.88;10.82;;;3.70;69.20;;;-1.37;100.00;96547.44;4970478;28;20026;-57
2023/01/31 05:23:06;;;;;;;24.95;10.43;;;3.70;69.20;;;-1.34;100.00;96551.53;4986517;28;20365;-55
2023/01/31 05:25:49;;;;;;;25.73;10.43;;;3.80;69.20;;;-1.33;100.00;96550.53;4987422;28;20545;-55
2023/01/31 05:28:15;;;;;;;26.25;11.98;;;3.80;69.30;;;-1.32;100.00;96565.22;4968431;28;20041;-60
2023/01/31 05:30:47;;;;;;;25.83;10.52;;;3.80;69.10;;;-1.26;100.00;96564.56;4964144;28;20022;-60
2023/01/31 05:33:19;;;;;;;26.60;10.63;;;3.80;69.20;;;-1.20;100.00;96566.50;4973583;28;20018;-54
2023/01/31 05:35:47;;;;;;;26.00;11.20;;;3.90;70.10;;;-1.18;100.00;96570.59;4972626;28;20022;-60
2023/01/31 05:38:14;;;;;;;24.55;10.85;;;4.00;69.30;;;-1.13;100.00;96562.22;4944357;28;20034;-54
2023/01/31 05:40:50;;;;;;;22.80;10.43;;;3.90;69.20;;;-1.08;100.00;96556.53;4972380;28;20042;-60
2023/01/31 05:43:17;;;;;;;21.73;9.85;;;4.00;69.30;;;-1.07;100.00;96551.09;4966936;28;20094;-59
2023/01/31 05:45:44;;;;;;;25.02;10.38;;;4.00;69.20;;;-1.03;100.00;96549.00;4988764;28;20026;-59
2023/01/31 05:48:19;;;;;;;28.27;11.25;;;4.10;69.30;;;-1.01;100.00;96554.84;4987483;28;20026;-56
2023/01/31 05:50:49;;;;;;;20.48;9.75;;;4.10;69.30;;;-0.98;100.00;96557.94;4972351;28;20014;-59
2023/01/31 05:53:17;;;;;;;18.85;9.95;;;4.20;69.30;;;-0.95;100.00;96556.81;4973876;28;20026;-57
2023/01/31 05:55:49;;;;;;;26.48;10.52;;;4.20;69.30;;;-0.92;100.00;96556.47;4972933;28;20018;-58
2023/01/31 05:58:18;;;;;;;20.08;10.10;;;4.30;69.30;;;-0.90;100.00;96564.16;4988660;28;20026;-58
2023/01/31 06:00:44;;;;;;;19.27;9.90;;;4.30;69.30;;;-0.88;100.00;96570.81;4987810;28;20073;-58
2023/01/31 06:03:10;;;;;;;22.65;10.52;;;4.30;69.30;;;-0.85;100.00;96570.50;4987772;28;20503;-59
2023/01/31 06:05:39;;;;;;;20.05;9.80;;;4.40;69.30;;;-0.85;100.00;96569.69;4987604;28;20499;-56
2023/01/31 06:08:11;;;;;;;21.85;10.68;;;4.40;69.20;;;-0.78;100.00;96578.50;4977077;28;20042;-59
2023/01/31 06:10:43;;;;;;;21.27;10.82;;;4.40;69.20;;;-0.77;100.00;96578.31;4972804;28;20022;-57
2023/01/31 06:13:09;;;;;;;23.27;10.65;;;4.50;69.20;;;-0.73;100.00;96589.25;4979965;28;20378;-58
2023/01/31 06:15:36;;;;;;;22.05;10.10;;;4.50;69.10;;;-0.71;100.00;96580.25;4990821;28;20111;-59
2023/01/31 06:18:02;;;;;;;20.95;10.63;;;4.50;69.10;;;-0.67;100.00;96579.94;4973867;28;20099;-58
2023/01/31 06:20:37;;;;;;;23.40;10.50;;;4.60;69.20;;;-0.66;100.00;96577.13;4992649;28;20026;-59
2023/01/31 06:23:09;;;;;;;20.25;10.05;;;4.60;69.10;;;-0.63;100.00;96584.63;5002229;28;20027;-59
2023/01/31 06:25:47;;;;;;;20.33;9.93;;;4.60;69.10;;;-0.63;100.00;96579.41;4956810;28;20030;-56
2023/01/31 06:28:13;;;;;;;21.92;10.35;;;4.60;69.10;;;-0.61;100.00;96566.97;4988089;28;20033;-55
2023/01/31 06:30:39;;;;;;;22.30;10.68;;;4.60;69.00;;;-0.59;100.00;96575.47;4983610;28;20399;-60
2023/01/31 06:33:05;;;;;;;24.85;9.85;;;4.70;69.00;;;-0.54;100.00;96580.19;4979347;28;20455;-60
2023/01/31 06:35:35;;;;;;;20.00;9.50;;;4.70;69.00;;;-0.54;100.00;96577.56;5005934;28;20045;-56
2023/01/31 06:38:12;;;;;;;21.15;10.25;;;4.70;69.00;;;-0.57;100.00;96580.53;5005613;28;20029;-60
2023/01/31 06:40:37;;;;;;;21.38;9.93;;;4.70;69.00;;;-0.55;100.00;96579.38;4989533;28;20083;-56
2023/01/31 06:43:03;;;;;;;18.20;9.70;;;4.70;69.00;;;-0.54;100.00;96586.22;5001542;28;20435;-60
2023/01/31 06:45:32;;;;;;;20.58;9.55;;;4.70;68.90;;;-0.54;100.00;96574.97;4986225;28;20392;-60
2023/01/31 06:48:01;;;;;;;16.67;9.02;;;4.70;68.90;;;-0.49;100.00;96589.16;4973588;28;20057;-60
2023/01/31 06:50:30;;;;;;;19.02;10.30;;;4.70;68.90;;;-0.49;100.00;96588.34;4969068;28;20557;-55
2023/01/31 06:52:58;;;;;;;21.50;10.07;;;4.80;69.00;;;-0.49;100.00;96594.41;4968558;28;20026;-60
2023/01/31 06:55:24;;;;;;;19.58;9.57;;;4.80;69.00;;;-0.47;100.00;96599.47;4967383;28;20025;-60
2023/01/31 06:57:50;;;;;;;18.27;8.82;;;4.80;68.90;;;-0.46;100.00;96598.50;4976529;28;20030;-60
2023/01/31 07:00:18;;;;;;;18.33;9.13;;;4.80;68.90;;;-0.45;100.00;96594.06;4987057;28;20369;-60
2023/01/31 07:02:45;;;;;;;17.65;9.27;;;4.80;68.90;;;-0.47;100.00;96588.97;4963589;28;20034;-56
2023/01/31 07:05:11;;;;;;;19.08;9.88;;;4.80;68.80;;;-0.50;100.00;96587.56;4989588;28;20320;-60
2023/01/31 07:07:40;;;;;;;20.30;9.88;;;4.80;68.80;;;-0.49;100.00;96599.63;4950257;28;20042;-60
2023/01/31 07:10:08;;;;;;;18.90;9.52;;;4.80;68.80;;;-0.49;100.00;96609.31;4968684;28;20022;-60
2023/01/31 07:12:34;;;;;;;26.85;13.40;;;4.80;68.80;;;-0.52;100.00;96599.97;4941128;28;20909;-54
2023/01/31 07:15:00;;;;;;;22.15;11.50;;;4.80;68.80;;;-0.51;100.00;96606.84;4961746;28;20542;-60
2023/01/31 07:17:26;;;;;;;20.88;10.45;;;4.80;68.80;;;-0.52;100.00;96605.22;4968416;28;20384;-57
2023/01/31 07:19:55;;;;;;;18.60;10.07;;;4.80;68.80;;;-0.51;100.00;96601.59;4977367;28;20030;-56
2023/01/31 07:22:21;;;;;;;20.98;10.02;;;4.80;68.80;;;-0.51;100.00;96601.59;4987123;28;20033;-57
2023/01/31 07:24:49;;;;;;;19.83;10.50;;;4.80;68.80;;;-0.50;100.00;96605.06;4965248;28;20025;-55
2023/01/31 07:27:17;;;;;;;23.25;11.60;;;4.90;68.90;;;-0.51;100.00;96604.22;4971832;28;20433;-59
2023/01/31 07:29:44;;;;;;;21.65;10.40;;;4.90;68.90;;;-0.48;100.00;96609.13;4969769;28;20426;-57
2023/01/31 07:32:10;;;;;;;20.02;9.90;;;4.90;68.80;;;-0.45;100.00;96610.59;4968889;28;20098;-58
2023/01/31 07:34:36;;;;;;;20.52;11.02;;;5.00;68.90;;;-0.40;100.00;96618.75;4986050;28;20344;-58
2023/01/31 07:37:03;;;;;;;22.25;12.13;;;5.00;68.80;;;-0.33;100.00;96622.31;4969428;28;20053;-60
2023/01/31 07:39:29;;;;;;;21.23;10.52;;;5.10;68.80;;;-0.30;100.00;96618.53;4971144;28;20025;-59
2023/01/31 07:41:58;;;;;;;16.73;8.70;;;5.10;68.70;;;-0.31;100.00;96616.91;4953213;28;20037;-60
2023/01/31 07:44:24;;;;;;;15.10;8.60;;;5.20;68.70;;;-0.26;100.00;96614.59;4970826;28;20132;-58
2023/01/31 07:46:53;;;;;;;15.82;7.93;;;5.20;68.50;;;-0.23;100.00;96609.00;4970130;28;20022;-58
2023/01/31 07:49:22;;;;;;;15.95;8.13;;;5.30;68.50;;;-0.16;100.00;96612.56;4969061;28;20029;-60
2023/01/31 07:51:48;;;;;;;18.48;8.57;;;5.30;68.40;;;-0.13;100.00;96614.03;4969459;28;20022;-59
2023/01/31 07:54:14;;;;;;;15.82;7.75;;;5.40;68.40;;;-0.04;100.00;96607.75;4971254;28;20420;-57
2023/01/31 07:56:42;;;;;;;12.60;7.90;;;5.50;68.30;;;0.02;100.00;96601.81;4985503;28;20022;-57
2023/01/31 07:59:16;;;;;;;16.05;8.30;;;5.60;68.30;;;0.05;100.00;96600.66;4966880;28;20350;-59
2023/01/31 08:04:35;;;;;;;16.92;8.38;;;5.70;68.00;;;0.15;100.00;96607.31;4983188;28;20114;-60
2023/01/31 08:07:04;;;;;;;14.13;7.35;;;5.80;67.90;;;0.21;100.00;96609.22;4979311;28;20136;-58
2023/01/31 08:09:30;;;;;;;14.57;8.40;;;5.90;67.90;;;0.25;100.00;96603.63;4963229;28;20019;-56
2023/01/31 08:11:59;;;;;;;17.02;8.38;;;5.90;67.70;;;0.28;100.00;96608.53;4982912;28;20029;-57
2023/01/31 08:14:31;;;;;;;16.23;8.45;;;6.00;67.60;;;0.33;100.00;96612.25;4982387;23;20128;-60
2023/01/31 08:17:07;;;;;;;14.68;8.80;;;6.00;67.40;;;0.35;100.00;96605.06;4970367;28;20037;-58
2023/01/31 08:19:34;;;;;;;15.80;8.63;;;6.10;67.30;;;0.39;100.00;96608.94;4970277;28;20106;-59
2023/01/31 08:22:01;;;;;;;15.05;7.57;;;6.20;67.20;;;0.48;100.00;96604.47;4970215;28;20034;-58
2023/01/31 08:24:28;;;;;;;12.10;7.47;;;6.20;67.10;;;0.57;100.00;96605.22;4975882;28;20033;-59
2023/01/31 08:26:54;;;;;;;11.32;6.35;;;6.30;66.90;;;0.49;99.75;96600.84;4997060;28;20030;-56
2023/01/31 08:29:21;;;;;;;10.77;6.20;;;6.40;66.70;;;0.58;100.00;96602.41;4953926;28;20022;-59
2023/01/31 08:31:47;;;;;;;14.68;7.15;;;6.50;66.70;;;0.65;99.07;96600.69;5004096;28;20034;-59
2023/01/31 08:34:13;;;;;;;13.88;7.18;;;6.60;66.60;;;0.58;98.33;96596.34;4976203;28;20071;-58
2023/01/31 08:36:39;;;;;;;12.93;7.00;;;6.60;66.40;;;0.68;98.39;96591.66;4976590;28;20021;-55
2023/01/31 08:39:05;;;;;;;15.75;6.80;;;6.70;66.20;;;0.78;98.11;96594.84;4968763;28;20481;-58
2023/01/31 08:41:35;;;;;;;12.98;7.32;;;6.80;66.00;;;0.86;97.62;96589.53;4976258;28;20022;-59
2023/01/31 08:44:07;;;;;;;13.07;7.47;;;6.80;65.80;;;0.90;97.62;96587.34;4986772;28;20036;-58
2023/01/31 08:46:36;;;;;;;11.77;6.43;;;6.90;65.70;;;0.99;97.78;96578.41;4952365;28;20480;-58
2023/01/31 08:49:06;;;;;;;10.77;6.57;;;7.00;65.60;;;1.04;96.94;96583.94;4975115;28;20034;-58
2023/01/31 08:51:41;;;;;;;14.40;7.15;;;7.10;65.50;;;1.12;96.48;96590.91;4977886;28;20038;-59
2023/01/31 08:54:11;;;;;;;10.38;6.75;;;7.20;65.30;;;1.21;95.39;96589.00;4983884;28;20473;-58
2023/01/31 08:56:43;;;;;;;11.77;6.43;;;7.20;65.30;;;1.35;95.78;96599.53;4987251;28;20044;-57
2023/01/31 08:59:11;;;;;;;10.65;6.35;;;7.40;65.20;;;1.41;94.72;96603.22;4982092;28;20122;-59
2023/01/31 09:01:37;;;;;;;12.75;6.85;;;7.50;65.20;;;1.43;93.84;96598.59;4974831;28;20488;-56
2023/01/31 09:04:09;;;;;;;12.38;7.55;;;7.60;65.00;;;1.56;93.38;96604.00;4952273;28;20037;-57
2023/01/31 09:06:37;;;;;;;11.43;6.57;;;7.70;64.80;;;1.69;92.54;96597.28;4981206;28;20021;-57
2023/01/31 09:09:07;;;;;;;12.73;6.90;;;7.80;64.50;;;1.80;92.13;96599.47;4973809;28;20412;-55
2023/01/31 09:11:38;;;;;;;10.32;6.80;;;7.90;64.40;;;2.00;91.52;96600.47;4984424;28;20140;-57
2023/01/31 09:14:04;;;;;;;9.60;5.88;;;8.10;64.40;;;2.12;90.18;96600.81;4990138;28;20046;-56
2023/01/31 09:16:33;;;;;;;11.95;7.00;;;8.20;64.20;;;2.27;90.24;96601.59;4999323;28;20025;-58
2023/01/31 09:19:08;;;;;;;9.68;6.65;;;8.40;64.10;;;2.36;89.48;96606.72;4997328;28;20034;-58
2023/01/31 09:21:39;;;;;;;12.00;7.47;;;8.60;63.90;;;2.43;88.49;96604.97;4983766;28;20113;-58
2023/01/31 09:24:06;;;;;;;9.35;6.85;;;8.70;63.90;;;2.52;88.27;96603.84;4998016;28;20061;-56
2023/01/31 09:26:32;;;;;;;12.02;7.90;;;8.80;63.50;;;2.63;87.42;96605.13;5008786;28;20029;-59
2023/01/31 09:29:01;;;;;;;11.80;7.65;;;9.00;63.10;;;2.73;87.40;96608.28;4990939;28;20388;-59
2023/01/31 09:31:27;;;;;;;14.93;8.38;;;9.10;62.80;;;2.93;86.51;96601.34;5002832;28;20083;-56
2023/01/31 09:33:58;;;;;;;11.23;7.63;;;9.30;62.60;;;3.06;84.80;96602.44;4943571;28;21521;-56
2023/01/31 09:36:30;;;;;;;12.75;8.13;;;9.60;62.20;;;3.25;85.19;96593.84;4972514;28;20070;-55
2023/01/31 09:38:56;;;;;;;12.97;8.17;;;9.80;61.80;;;3.40;82.80;96597.19;5008086;28;20017;-56
2023/01/31 09:41:48;;;;;;;11.95;7.93;;;10.00;61.60;;;3.54;82.34;96591.97;4990908;28;20120;-57
2023/01/31 09:44:45;;;;;;;11.15;7.50;;;10.40;60.80;;;3.87;81.71;96594.75;4990802;28;20117;-55
2023/01/31 09:47:37;;;;;;;11.80;7.60;;;10.80;60.50;;;4.27;80.19;96594.88;5002739;28;20064;-57
2023/01/31 09:50:50;;;;;;;11.85;7.88;;;11.30;59.90;;;4.63;77.91;96589.22;4995127;28;20104;-58
2023/01/31 09:53:22;;;;;;;10.70;7.25;;;11.70;59.60;;;5.04;77.37;96593.50;4983811;28;20025;-55
2023/01/31 09:56:23;;;;;;;10.63;7.95;;;12.20;59.50;;;5.34;73.67;96592.03;4976794;28;20026;-58
2023/01/31 09:59:25;;;;;;;11.40;7.28;;;12.60;58.70;;;5.43;72.46;96599.75;4992981;28;20062;-59
2023/01/31 10:02:47;;;;;;;10.48;8.10;;;13.00;57.90;;;5.63;70.80;96605.78;4983735;28;20045;-58
2023/01/31 10:06:06;;;;;;;10.40;7.68;;;13.40;57.10;;;5.45;71.81;96608.25;4983835;28;20548;-59
2023/01/31 10:09:13;;;;;;;11.70;7.45;;;13.70;56.30;;;5.76;70.97;96608.38;4971288;28;20455;-58
2023/01/31 10:12:11;;;;;;;9.90;7.60;;;13.60;55.90;;;5.76;70.44;96600.44;4995252;28;20057;-56
2023/01/31 10:14:52;;;;;;;10.80;7.75;;;13.50;55.70;;;5.79;69.65;96604.50;4990014;28;20065;-59
2023/01/31 10:17:40;;;;;;;12.10;7.47;;;13.30;55.60;;;5.62;70.30;96598.88;4973190;28;20025;-58
2023/01/31 10:20:27;;;;;;;10.70;7.80;;;13.00;55.30;;;5.48;69.93;96600.72;4983916;28;20096;-57
2023/01/31 10:24:24;;;;;;;12.25;7.70;;;12.70;55.10;;;5.28;71.60;96608.69;5004508;28;20486;-57
2023/01/31 10:27:03;;;;;;;11.18;7.60;;;12.40;55.30;;;5.18;72.22;96604.88;4968228;28;20461;-56
2023/01/31 10:29:49;;;;;;;12.93;7.80;;;12.00;55.40;;;4.93;73.73;96610.78;4984874;28;20472;-58
2023/01/31 10:32:43;;;;;;;9.30;7.15;;;11.90;55.30;;;4.98;73.45;96600.41;4988005;28;20034;-58
2023/01/31 10:35:29;;;;;;;13.50;7.35;;;11.80;55.30;;;5.15;72.88;96587.59;4999267;28;20037;-59
2023/01/31 10:38:13;;;;;;;10.35;7.15;;;12.00;55.40;;;5.36;71.18;96585.72;4990927;28;20030;-59
2023/01/31 10:40:49;;;;;;;10.07;7.00;;;12.40;55.20;;;5.39;70.26;96583.50;4988896;28;20053;-58
2023/01/31 10:43:49;;;;;;;10.90;7.35;;;12.50;54.90;;;5.41;70.29;96583.28;5001334;28;20041;-59
2023/01/31 10:46:15;;;;;;;13.82;8.00;;;12.40;54.60;;;5.06;71.26;96579.06;4986422;28;20017;-58
2023/01/31 10:48:46;;;;;;;10.15;6.75;;;12.50;54.30;;;5.37;69.25;96571.50;4993542;28;20111;-58
2023/01/31 10:51:32;;;;;;;8.77;6.35;;;12.70;54.00;;;5.42;67.69;96576.97;4981124;28;20034;-56
2023/01/31 10:54:58;;;;;;;10.10;6.80;;;12.80;53.80;;;5.25;68.38;96563.38;4984810;28;20029;-59
2023/01/31 10:57:31;;;;;;;11.77;6.80;;;12.90;53.30;;;5.09;68.30;96546.97;5009333;28;20029;-59
2023/01/31 11:00:06;;;;;;;9.10;6.85;;;12.90;52.80;;;5.05;68.88;96558.16;4990941;28;20480;-59